createdAt,value
2023-04-16T00:00:29.661Z,22.6058
2023-04-16T00:01:33.561Z,22.5975
2023-04-16T00:02:37.624Z,22.5963
2023-04-16T00:03:41.815Z,22.6083
2023-04-16T00:04:45.863Z,22.6179
2023-04-16T00:05:49.746Z,22.6350
2023-04-16T00:06:53.655Z,22.6367
2023-04-16T00:07:57.530Z,22.6429
2023-04-16T00:09:01.414Z,22.6517
2023-04-16T00:10:05.333Z,22.6700
2023-04-16T00:11:09.193Z,22.6825
2023-04-16T00:12:13.083Z,22.6867
2023-04-16T00:13:16.985Z,22.6663
2023-04-16T00:14:20.877Z,22.6763
2023-04-16T00:15:24.784Z,22.6612
2023-04-16T00:16:28.995Z,22.6354
2023-04-16T00:17:32.963Z,22.6358
2023-04-16T00:18:36.841Z,22.6221
2023-04-16T00:19:40.742Z,22.6087
2023-04-16T00:20:44.615Z,22.6092
2023-04-16T00:21:48.754Z,22.6046
2023-04-16T00:22:52.652Z,22.6138
2023-04-16T00:23:56.745Z,22.6100
2023-04-16T00:25:00.646Z,22.6175
2023-04-16T00:26:04.555Z,22.6304
2023-04-16T00:27:08.440Z,22.6250
2023-04-16T00:28:12.350Z,22.6071
2023-04-16T00:29:16.236Z,22.5950
2023-04-16T00:30:20.132Z,22.5938
2023-04-16T00:31:24.350Z,22.6017
2023-04-16T00:32:28.379Z,22.6163
2023-04-16T00:33:32.287Z,22.6287
2023-04-16T00:34:32.496Z,22.6291
2023-04-16T00:35:36.392Z,22.6308
2023-04-16T00:36:40.329Z,22.6275
2023-04-16T00:37:44.206Z,22.6513
2023-04-16T00:38:48.320Z,22.6604
2023-04-16T00:39:52.231Z,22.6821
2023-04-16T00:40:56.100Z,22.6942
2023-04-16T00:41:59.995Z,22.6683
2023-04-16T00:43:03.875Z,22.6421
2023-04-16T00:44:07.791Z,22.6404
2023-04-16T00:45:11.676Z,22.6517
2023-04-16T00:46:15.610Z,22.6517
2023-04-16T00:47:19.484Z,22.6658
2023-04-16T00:48:23.378Z,22.6533
2023-04-16T00:49:27.278Z,22.6467
2023-04-16T00:50:31.160Z,22.6529
2023-04-16T00:51:35.060Z,22.6433
2023-04-16T00:52:38.936Z,22.6462
2023-04-16T00:53:42.838Z,22.6500
2023-04-16T00:54:46.720Z,22.6400
2023-04-16T00:55:50.634Z,22.6179
2023-04-16T00:56:54.503Z,22.6129
2023-04-16T00:57:58.410Z,22.6242
2023-04-16T00:59:02.328Z,22.6092
2023-04-16T01:00:06.227Z,22.6104
2023-04-16T01:01:10.138Z,22.6254
2023-04-16T01:02:14.108Z,22.6192
2023-04-16T01:03:18.038Z,22.6133
2023-04-16T01:04:22.020Z,22.6221
2023-04-16T01:05:25.898Z,22.6254
2023-04-16T01:06:29.804Z,22.6333
2023-04-16T01:07:33.690Z,22.6446
2023-04-16T01:08:37.597Z,22.6425
2023-04-16T01:09:41.520Z,22.6296
2023-04-16T01:10:45.410Z,22.6492
2023-04-16T01:11:49.310Z,22.6417
2023-04-16T01:12:53.202Z,22.6258
2023-04-16T01:13:57.105Z,22.6283
2023-04-16T01:15:00.995Z,22.6300
2023-04-16T01:16:04.960Z,22.6267
2023-04-16T01:17:09.039Z,22.6271
2023-04-16T01:18:12.967Z,22.6246
2023-04-16T01:19:16.814Z,22.6429
2023-04-16T01:20:20.713Z,22.6329
2023-04-16T01:21:24.588Z,22.6183
2023-04-16T01:22:28.507Z,22.6167
2023-04-16T01:23:32.371Z,22.6142
2023-04-16T01:24:36.287Z,22.5837
2023-04-16T01:25:40.157Z,22.5571
2023-04-16T01:26:44.058Z,22.5429
2023-04-16T01:27:47.936Z,22.5788
2023-04-16T01:28:52.157Z,22.5863
2023-04-16T01:29:56.052Z,22.6092
2023-04-16T01:30:59.946Z,22.6038
2023-04-16T01:32:04.139Z,22.6150
2023-04-16T01:33:08.031Z,22.6154
2023-04-16T01:34:11.937Z,22.6250
2023-04-16T01:35:15.821Z,22.6225
2023-04-16T01:36:19.731Z,22.5854
2023-04-16T01:37:23.617Z,22.5558
2023-04-16T01:38:27.515Z,22.5588
2023-04-16T01:39:31.602Z,22.5567
2023-04-16T01:40:35.511Z,22.5429
2023-04-16T01:41:39.406Z,22.5408
2023-04-16T01:42:43.309Z,22.5471
2023-04-16T01:43:47.423Z,22.5617
2023-04-16T01:44:51.308Z,22.5704
2023-04-16T01:45:55.207Z,22.5617
2023-04-16T01:46:59.140Z,22.5646
2023-04-16T01:48:03.084Z,22.5604
2023-04-16T01:49:07.047Z,22.5625
2023-04-16T01:50:11.012Z,22.5642
2023-04-16T01:51:14.913Z,22.5683
2023-04-16T01:52:18.795Z,22.5604
2023-04-16T01:53:22.692Z,22.5383
2023-04-16T01:54:26.805Z,22.5475
2023-04-16T01:55:30.710Z,22.5517
2023-04-16T01:56:34.588Z,22.5417
2023-04-16T01:57:38.509Z,22.5537
2023-04-16T01:58:42.379Z,22.5596
2023-04-16T01:59:46.277Z,22.5642
2023-04-16T02:00:50.167Z,22.5617
2023-04-16T02:01:54.099Z,22.5517
2023-04-16T02:02:58.069Z,22.5487
2023-04-16T02:04:02.339Z,22.5408
2023-04-16T02:05:07.097Z,22.5558
2023-04-16T02:06:07.810Z,22.5630
2023-04-16T02:07:11.730Z,22.5642
2023-04-16T02:08:15.605Z,22.5467
2023-04-16T02:09:19.718Z,22.5529
2023-04-16T02:10:31.156Z,22.5617
2023-04-16T02:11:24.457Z,22.5630
2023-04-16T02:12:28.363Z,22.5746
2023-04-16T02:13:32.281Z,22.5908
2023-04-16T02:14:36.475Z,22.5833
2023-04-16T02:15:40.347Z,22.5729
2023-04-16T02:16:40.877Z,22.5773
2023-04-16T02:17:44.854Z,22.5779
2023-04-16T02:18:48.718Z,22.5704
2023-04-16T02:19:52.646Z,22.5633
2023-04-16T02:20:56.524Z,22.5675
2023-04-16T02:22:00.428Z,22.5792
2023-04-16T02:23:04.289Z,22.5792
2023-04-16T02:24:08.203Z,22.5504
2023-04-16T02:25:12.076Z,22.5483
2023-04-16T02:26:15.980Z,22.5537
2023-04-16T02:27:19.884Z,22.5583
2023-04-16T02:28:23.758Z,22.5621
2023-04-16T02:29:27.817Z,22.5521
2023-04-16T02:30:31.719Z,22.5513
2023-04-16T02:31:35.667Z,22.5492
2023-04-16T02:32:39.574Z,22.5583
2023-04-16T02:33:43.478Z,22.5554
2023-04-16T02:34:47.381Z,22.5396
2023-04-16T02:35:51.271Z,22.5375
2023-04-16T02:36:55.171Z,22.5462
2023-04-16T02:37:59.080Z,22.5562
2023-04-16T02:39:02.949Z,22.5379
2023-04-16T02:40:06.832Z,22.5446
2023-04-16T02:41:10.736Z,22.5779
2023-04-16T02:42:14.626Z,22.5925
2023-04-16T02:43:18.524Z,22.5975
2023-04-16T02:44:22.652Z,22.6075
2023-04-16T02:45:26.538Z,22.6121
2023-04-16T02:46:30.912Z,22.6004
2023-04-16T02:47:34.823Z,22.5933
2023-04-16T02:48:38.731Z,22.5929
2023-04-16T02:49:42.622Z,22.6004
2023-04-16T02:50:46.509Z,22.6012
2023-04-16T02:51:50.615Z,22.5962
2023-04-16T02:52:54.509Z,22.5654
2023-04-16T02:53:58.394Z,22.5579
2023-04-16T02:55:02.307Z,22.5767
2023-04-16T02:56:06.210Z,22.5850
2023-04-16T02:57:10.340Z,22.5996
2023-04-16T02:58:14.235Z,22.6154
2023-04-16T02:59:18.421Z,22.6313
2023-04-16T03:00:22.334Z,22.6187
2023-04-16T03:01:26.277Z,22.6100
2023-04-16T03:02:30.263Z,22.6167
2023-04-16T03:03:34.143Z,22.6217
2023-04-16T03:04:38.458Z,22.6213
2023-04-16T03:05:42.493Z,22.6304
2023-04-16T03:06:46.381Z,22.6238
2023-04-16T03:07:50.268Z,22.6050
2023-04-16T03:08:54.151Z,22.6108
2023-04-16T03:09:58.054Z,22.6121
2023-04-16T03:11:01.934Z,22.6242
2023-04-16T03:12:06.035Z,22.6321
2023-04-16T03:13:09.930Z,22.6000
2023-04-16T03:14:14.030Z,22.5708
2023-04-16T03:15:17.969Z,22.5404
2023-04-16T03:16:22.104Z,22.4867
2023-04-16T03:17:26.028Z,22.4721
2023-04-16T03:18:29.899Z,22.4937
2023-04-16T03:19:34.004Z,22.4625
2023-04-16T03:20:37.923Z,22.4242
2023-04-16T03:21:41.837Z,22.3883
2023-04-16T03:22:45.749Z,22.3787
2023-04-16T03:23:49.647Z,22.3829
2023-04-16T03:24:53.558Z,22.3792
2023-04-16T03:25:57.486Z,22.3925
2023-04-16T03:27:01.609Z,22.3758
2023-04-16T03:28:05.513Z,22.3896
2023-04-16T03:29:05.860Z,22.4136
2023-04-16T03:30:09.758Z,22.4279
2023-04-16T03:31:13.931Z,22.4567
2023-04-16T03:32:17.858Z,22.4462
2023-04-16T03:33:21.736Z,22.4517
2023-04-16T03:34:25.626Z,22.4708
2023-04-16T03:35:29.532Z,22.4825
2023-04-16T03:36:33.674Z,22.4837
2023-04-16T03:37:37.573Z,22.4954
2023-04-16T03:38:41.484Z,22.5196
2023-04-16T03:39:45.623Z,22.5375
2023-04-16T03:40:49.486Z,22.5375
2023-04-16T03:41:53.414Z,22.5333
2023-04-16T03:42:57.300Z,22.5513
2023-04-16T03:44:01.405Z,22.5438
2023-04-16T03:45:05.316Z,22.5513
2023-04-16T03:46:09.243Z,22.5800
2023-04-16T03:47:13.367Z,22.6004
2023-04-16T03:48:17.267Z,22.6075
2023-04-16T03:49:21.358Z,22.6171
2023-04-16T03:50:25.296Z,22.6342
2023-04-16T03:51:29.149Z,22.6262
2023-04-16T03:52:33.051Z,22.6300
2023-04-16T03:53:36.921Z,22.6417
2023-04-16T03:54:40.824Z,22.6400
2023-04-16T03:55:44.692Z,22.6579
2023-04-16T03:56:48.892Z,22.6579
2023-04-16T03:57:52.811Z,22.6442
2023-04-16T03:58:56.699Z,22.6596
2023-04-16T04:00:00.569Z,22.6562
2023-04-16T04:01:04.480Z,22.6675
2023-04-16T04:02:08.461Z,22.6525
2023-04-16T04:03:12.654Z,22.6575
2023-04-16T04:04:16.911Z,22.6721
2023-04-16T04:05:20.821Z,22.6804
2023-04-16T04:06:24.744Z,22.6712
2023-04-16T04:07:28.632Z,22.6688
2023-04-16T04:08:32.532Z,22.6742
2023-04-16T04:09:36.637Z,22.6896
2023-04-16T04:10:40.530Z,22.6925
2023-04-16T04:11:44.693Z,22.7042
2023-04-16T04:12:48.568Z,22.7058
2023-04-16T04:13:52.465Z,22.7017
2023-04-16T04:14:56.349Z,22.6917
2023-04-16T04:16:00.260Z,22.6675
2023-04-16T04:17:04.143Z,22.6637
2023-04-16T04:18:08.044Z,22.6550
2023-04-16T04:19:12.338Z,22.6546
2023-04-16T04:20:16.243Z,22.6271
2023-04-16T04:21:20.153Z,22.6200
2023-04-16T04:22:24.067Z,22.6233
2023-04-16T04:23:27.948Z,22.6229
2023-04-16T04:24:28.291Z,22.6041
2023-04-16T04:25:32.172Z,22.5963
2023-04-16T04:26:36.132Z,22.5708
2023-04-16T04:27:39.971Z,22.5462
2023-04-16T04:28:43.847Z,22.5483
2023-04-16T04:29:47.958Z,22.5508
2023-04-16T04:30:51.845Z,22.5450
2023-04-16T04:31:55.993Z,22.5396
2023-04-16T04:32:59.945Z,22.5450
2023-04-16T04:34:04.128Z,22.5396
2023-04-16T04:35:08.013Z,22.5183
2023-04-16T04:36:11.891Z,22.5096
2023-04-16T04:37:15.791Z,22.5125
2023-04-16T04:38:19.675Z,22.5254
2023-04-16T04:39:23.555Z,22.5154
2023-04-16T04:40:27.478Z,22.5112
2023-04-16T04:41:31.585Z,22.5121
2023-04-16T04:42:35.479Z,22.5096
2023-04-16T04:43:39.391Z,22.4963
2023-04-16T04:44:43.301Z,22.4879
2023-04-16T04:45:47.300Z,22.5017
2023-04-16T04:46:51.459Z,22.5317
2023-04-16T04:47:55.391Z,22.5367
2023-04-16T04:48:59.502Z,22.5067
2023-04-16T04:50:03.449Z,22.4979
2023-04-16T04:51:07.333Z,22.4979
2023-04-16T04:52:11.243Z,22.4937
2023-04-16T04:53:15.200Z,22.4817
2023-04-16T04:54:19.060Z,22.4675
2023-04-16T04:55:22.968Z,22.4592
2023-04-16T04:56:26.907Z,22.4387
2023-04-16T04:57:30.809Z,22.4233
2023-04-16T04:58:34.922Z,22.4179
2023-04-16T04:59:38.812Z,22.4542
2023-04-16T05:00:42.691Z,22.4904
2023-04-16T05:01:46.881Z,22.4992
2023-04-16T05:02:50.906Z,22.5121
2023-04-16T05:03:55.139Z,22.5246
2023-04-16T05:04:59.044Z,22.4996
2023-04-16T05:06:02.930Z,22.5204
2023-04-16T05:07:06.827Z,22.5250
2023-04-16T05:08:10.710Z,22.5592
2023-04-16T05:09:14.600Z,22.5629
2023-04-16T05:10:18.482Z,22.5254
2023-04-16T05:11:22.589Z,22.4725
2023-04-16T05:12:26.480Z,22.4583
2023-04-16T05:13:30.367Z,22.4837
2023-04-16T05:14:34.257Z,22.5000
2023-04-16T05:15:38.131Z,22.5221
2023-04-16T05:16:42.019Z,22.5367
2023-04-16T05:17:45.909Z,22.5650
2023-04-16T05:18:49.838Z,22.5696
2023-04-16T05:19:53.756Z,22.5929
2023-04-16T05:20:57.619Z,22.5954
2023-04-16T05:22:01.493Z,22.6033
2023-04-16T05:23:05.405Z,22.6158
2023-04-16T05:24:09.706Z,22.6175
2023-04-16T05:25:13.591Z,22.6383
2023-04-16T05:26:17.688Z,22.6567
2023-04-16T05:27:21.561Z,22.6454
2023-04-16T05:28:25.458Z,22.6583
2023-04-16T05:29:29.341Z,22.6663
2023-04-16T05:30:33.266Z,22.6938
2023-04-16T05:31:37.334Z,22.7129
2023-04-16T05:32:41.267Z,22.7321
2023-04-16T05:33:45.421Z,22.7313
2023-04-16T05:34:49.291Z,22.7150
2023-04-16T05:35:53.204Z,22.7183
2023-04-16T05:36:57.105Z,22.7133
2023-04-16T05:38:01.007Z,22.7237
2023-04-16T05:39:05.148Z,22.7267
2023-04-16T05:40:09.031Z,22.7417
2023-04-16T05:41:12.929Z,22.7417
2023-04-16T05:42:16.848Z,22.7496
2023-04-16T05:43:20.736Z,22.7546
2023-04-16T05:44:24.661Z,22.7633
2023-04-16T05:45:28.545Z,22.7717
2023-04-16T05:46:32.771Z,22.7779
2023-04-16T05:47:36.738Z,22.7867
2023-04-16T05:48:40.813Z,22.8000
2023-04-16T05:49:44.858Z,22.8067
2023-04-16T05:50:48.729Z,22.8179
2023-04-16T05:51:52.635Z,22.8208
2023-04-16T05:52:56.537Z,22.8213
2023-04-16T05:54:00.679Z,22.8254
2023-04-16T05:55:04.602Z,22.8308
2023-04-16T05:56:08.725Z,22.8300
2023-04-16T05:57:12.624Z,22.8337
2023-04-16T05:58:16.496Z,22.8379
2023-04-16T05:59:20.385Z,22.8471
2023-04-16T06:00:24.280Z,22.8521
2023-04-16T06:01:28.425Z,22.8500
2023-04-16T06:02:32.427Z,22.8546
2023-04-16T06:03:36.720Z,22.8567
2023-04-16T06:04:40.634Z,22.8658
2023-04-16T06:05:44.571Z,22.8683
2023-04-16T06:06:48.423Z,22.8808
2023-04-16T06:07:52.323Z,22.8913
2023-04-16T06:08:56.207Z,22.8846
2023-04-16T06:10:00.110Z,22.8971
2023-04-16T06:11:04.232Z,22.8879
2023-04-16T06:12:08.158Z,22.8867
2023-04-16T06:13:12.054Z,22.8888
2023-04-16T06:14:16.165Z,22.8913
2023-04-16T06:15:20.069Z,22.9075
2023-04-16T06:16:24.015Z,22.9125
2023-04-16T06:17:27.915Z,22.9212
2023-04-16T06:18:32.030Z,22.9250
2023-04-16T06:19:35.916Z,22.9225
2023-04-16T06:20:39.824Z,22.9300
2023-04-16T06:21:43.730Z,22.9267
2023-04-16T06:22:47.603Z,22.9204
2023-04-16T06:23:51.853Z,22.9196
2023-04-16T06:24:55.746Z,22.9529
2023-04-16T06:25:59.624Z,22.9717
2023-04-16T06:27:03.664Z,22.9662
2023-04-16T06:28:07.563Z,22.9675
2023-04-16T06:29:11.765Z,22.9746
2023-04-16T06:30:15.724Z,22.9854
2023-04-16T06:31:19.879Z,22.9867
2023-04-16T06:32:23.816Z,22.9983
2023-04-16T06:33:27.725Z,22.9925
2023-04-16T06:34:31.623Z,23.0075
2023-04-16T06:35:35.509Z,23.0333
2023-04-16T06:36:39.408Z,23.0354
2023-04-16T06:37:43.306Z,23.0342
2023-04-16T06:38:47.178Z,23.0263
2023-04-16T06:39:51.053Z,23.0233
2023-04-16T06:40:55.158Z,23.0275
2023-04-16T06:41:59.055Z,23.0325
2023-04-16T06:43:02.935Z,23.0267
2023-04-16T06:44:06.830Z,23.0212
2023-04-16T06:45:10.699Z,23.0312
2023-04-16T06:46:14.828Z,23.0329
2023-04-16T06:47:18.766Z,23.0392
2023-04-16T06:48:22.910Z,23.0433
2023-04-16T06:49:26.814Z,23.0433
2023-04-16T06:50:30.696Z,23.0425
2023-04-16T06:51:34.587Z,23.0363
2023-04-16T06:52:38.490Z,23.0521
2023-04-16T06:53:42.616Z,23.0550
2023-04-16T06:54:46.506Z,23.0517
2023-04-16T06:55:50.390Z,23.0417
2023-04-16T06:56:54.308Z,23.0258
2023-04-16T06:57:58.198Z,23.0087
2023-04-16T06:59:02.344Z,22.9958
2023-04-16T07:00:06.249Z,23.0096
2023-04-16T07:01:10.405Z,23.0096
2023-04-16T07:02:14.380Z,23.0246
2023-04-16T07:03:18.518Z,23.0167
2023-04-16T07:04:22.491Z,23.0087
2023-04-16T07:05:26.377Z,23.0058
2023-04-16T07:06:30.286Z,23.0037
2023-04-16T07:07:34.184Z,22.9937
2023-04-16T07:08:38.418Z,23.0054
2023-04-16T07:09:42.301Z,22.9967
2023-04-16T07:10:46.415Z,23.0000
2023-04-16T07:11:50.322Z,23.0071
2023-04-16T07:12:54.209Z,23.0354
2023-04-16T07:13:58.120Z,23.0312
2023-04-16T07:15:01.986Z,23.0225
2023-04-16T07:16:05.910Z,23.0071
2023-04-16T07:17:09.778Z,23.0108
2023-04-16T07:18:13.958Z,23.0117
2023-04-16T07:19:17.998Z,23.0142
2023-04-16T07:20:21.895Z,23.0187
2023-04-16T07:21:25.793Z,23.0100
2023-04-16T07:22:29.696Z,23.0146
2023-04-16T07:23:33.633Z,23.0108
2023-04-16T07:24:37.513Z,23.0200
2023-04-16T07:25:41.481Z,23.0283
2023-04-16T07:26:45.384Z,23.0308
2023-04-16T07:27:49.273Z,23.0258
2023-04-16T07:28:53.182Z,23.0312
2023-04-16T07:29:57.084Z,23.0458
2023-04-16T07:31:00.974Z,23.0633
2023-04-16T07:32:04.990Z,23.0633
2023-04-16T07:33:09.050Z,23.0629
2023-04-16T07:34:12.913Z,23.0533
2023-04-16T07:35:16.823Z,23.0442
2023-04-16T07:36:20.712Z,23.0550
2023-04-16T07:37:24.615Z,23.0458
2023-04-16T07:38:28.754Z,23.0533
2023-04-16T07:39:32.688Z,23.0575
2023-04-16T07:40:36.704Z,23.0475
2023-04-16T07:41:40.591Z,23.0363
2023-04-16T07:42:44.452Z,23.0513
2023-04-16T07:43:48.334Z,23.0621
2023-04-16T07:44:52.240Z,23.0546
2023-04-16T07:45:56.490Z,23.0325
2023-04-16T07:47:00.464Z,23.0217
2023-04-16T07:48:04.774Z,23.0283
2023-04-16T07:49:08.876Z,23.0271
2023-04-16T07:50:12.863Z,23.0179
2023-04-16T07:51:16.759Z,23.0312
2023-04-16T07:52:20.668Z,23.0438
2023-04-16T07:53:24.555Z,23.0392
2023-04-16T07:54:29.175Z,23.0350
2023-04-16T07:55:33.108Z,23.0404
2023-04-16T07:56:37.052Z,23.0613
2023-04-16T07:57:40.917Z,23.0754
2023-04-16T07:58:44.834Z,23.0996
2023-04-16T07:59:48.705Z,23.1096
2023-04-16T08:00:52.815Z,23.1079
2023-04-16T08:01:56.727Z,23.1067
2023-04-16T08:03:00.883Z,23.1079
2023-04-16T08:04:04.995Z,23.1000
2023-04-16T08:05:08.959Z,23.0908
2023-04-16T08:06:12.838Z,23.1000
2023-04-16T08:07:16.753Z,23.1129
2023-04-16T08:08:16.915Z,23.1318
2023-04-16T08:09:20.803Z,23.1400
2023-04-16T08:10:24.899Z,23.1300
2023-04-16T08:11:28.816Z,23.1338
2023-04-16T08:12:32.715Z,23.1425
2023-04-16T08:13:36.614Z,23.1600
2023-04-16T08:14:40.482Z,23.1575
2023-04-16T08:15:44.634Z,23.1433
2023-04-16T08:16:48.533Z,23.1404
2023-04-16T08:17:52.756Z,23.1442
2023-04-16T08:18:56.609Z,23.1350
2023-04-16T08:20:00.506Z,23.1429
2023-04-16T08:21:04.392Z,23.1525
2023-04-16T08:22:08.316Z,23.1413
2023-04-16T08:23:12.195Z,23.1413
2023-04-16T08:24:16.127Z,23.1479
2023-04-16T08:25:20.000Z,23.1542
2023-04-16T08:26:24.002Z,23.1346
2023-04-16T08:27:27.901Z,23.1429
2023-04-16T08:28:32.024Z,23.1462
2023-04-16T08:29:35.935Z,23.1467
2023-04-16T08:30:39.841Z,23.1604
2023-04-16T08:31:43.775Z,23.1629
2023-04-16T08:32:50.045Z,23.1633
2023-04-16T08:33:48.852Z,23.1659
2023-04-16T08:34:52.753Z,23.1871
2023-04-16T08:35:56.991Z,23.2067
2023-04-16T08:37:00.994Z,23.2033
2023-04-16T08:38:04.912Z,23.1967
2023-04-16T08:39:08.913Z,23.2104
2023-04-16T08:40:13.083Z,23.2229
2023-04-16T08:41:17.218Z,23.2113
2023-04-16T08:42:21.131Z,23.2200
2023-04-16T08:43:25.013Z,23.2142
2023-04-16T08:44:28.939Z,23.2079
2023-04-16T08:45:33.118Z,23.2200
2023-04-16T08:46:37.024Z,23.2425
2023-04-16T08:47:40.911Z,23.2483
2023-04-16T08:48:44.787Z,23.2550
2023-04-16T08:49:48.721Z,23.2517
2023-04-16T08:50:52.580Z,23.2612
2023-04-16T08:51:54.080Z,23.2514
2023-04-16T08:52:58.213Z,23.2463
2023-04-16T08:54:02.310Z,23.2604
2023-04-16T08:55:06.221Z,23.2821
2023-04-16T08:56:10.104Z,23.2975
2023-04-16T08:57:13.987Z,23.3025
2023-04-16T08:58:18.202Z,23.2950
2023-04-16T08:59:22.089Z,23.3046
2023-04-16T09:00:26.218Z,23.3171
2023-04-16T09:01:30.145Z,23.3100
2023-04-16T09:02:34.134Z,23.3058
2023-04-16T09:03:38.345Z,23.3167
2023-04-16T09:04:42.383Z,23.3192
2023-04-16T09:05:46.280Z,23.3275
2023-04-16T09:06:50.163Z,23.3321
2023-04-16T09:07:54.059Z,23.3333
2023-04-16T09:08:57.953Z,23.3404
2023-04-16T09:10:01.914Z,23.3417
2023-04-16T09:11:05.814Z,23.3387
2023-04-16T09:12:09.700Z,23.3258
2023-04-16T09:13:13.596Z,23.3367
2023-04-16T09:14:17.482Z,23.3438
2023-04-16T09:15:21.598Z,23.3538
2023-04-16T09:16:25.534Z,23.3558
2023-04-16T09:17:29.497Z,23.3512
2023-04-16T09:18:33.372Z,23.3533
2023-04-16T09:19:37.270Z,23.3567
2023-04-16T09:20:41.320Z,23.3500
2023-04-16T09:21:45.207Z,23.3542
2023-04-16T09:22:49.104Z,23.3533
2023-04-16T09:23:52.984Z,23.3563
2023-04-16T09:24:56.885Z,23.3621
2023-04-16T09:26:00.962Z,23.3729
2023-04-16T09:27:04.862Z,23.3750
2023-04-16T09:28:09.016Z,23.3721
2023-04-16T09:29:12.887Z,23.3746
2023-04-16T09:30:16.793Z,23.3783
2023-04-16T09:31:21.013Z,23.3687
2023-04-16T09:32:24.911Z,23.3671
2023-04-16T09:33:28.808Z,23.3713
2023-04-16T09:34:32.703Z,23.3796
2023-04-16T09:35:36.849Z,23.3879
2023-04-16T09:36:40.737Z,23.3808
2023-04-16T09:37:44.875Z,23.3750
2023-04-16T09:38:48.751Z,23.3704
2023-04-16T09:39:52.655Z,23.3708
2023-04-16T09:40:56.723Z,23.3592
2023-04-16T09:42:00.613Z,23.3729
2023-04-16T09:43:05.018Z,23.3758
2023-04-16T09:44:08.918Z,23.3904
2023-04-16T09:45:12.791Z,23.4025
2023-04-16T09:46:16.704Z,23.4008
2023-04-16T09:47:20.598Z,23.4033
2023-04-16T09:48:24.476Z,23.4179
2023-04-16T09:49:28.407Z,23.4133
2023-04-16T09:50:32.315Z,23.3996
2023-04-16T09:51:36.220Z,23.4042
2023-04-16T09:52:40.341Z,23.3937
2023-04-16T09:53:44.220Z,23.3871
2023-04-16T09:54:48.116Z,23.3962
2023-04-16T09:55:52.248Z,23.3783
2023-04-16T09:56:56.161Z,23.3775
2023-04-16T09:58:00.084Z,23.3896
2023-04-16T09:59:04.006Z,23.3937
2023-04-16T10:00:07.926Z,23.4079
2023-04-16T10:01:12.006Z,23.4092
2023-04-16T10:02:16.560Z,23.4092
2023-04-16T10:03:20.657Z,23.4142
2023-04-16T10:04:24.572Z,23.3983
2023-04-16T10:05:28.525Z,23.3962
2023-04-16T10:06:32.407Z,23.3800
2023-04-16T10:07:36.528Z,23.3846
2023-04-16T10:08:40.408Z,23.3942
2023-04-16T10:09:44.272Z,23.4079
2023-04-16T10:10:48.153Z,23.4358
2023-04-16T10:11:52.051Z,23.4500
2023-04-16T10:12:56.188Z,23.4508
2023-04-16T10:14:00.172Z,23.4579
2023-04-16T10:15:04.311Z,23.4604
2023-04-16T10:16:08.201Z,23.4562
2023-04-16T10:17:12.117Z,23.4642
2023-04-16T10:18:16.008Z,23.4613
2023-04-16T10:19:19.929Z,23.4596
2023-04-16T10:20:23.823Z,23.4483
2023-04-16T10:21:27.740Z,23.4571
2023-04-16T10:22:31.614Z,23.4783
2023-04-16T10:23:35.508Z,23.4867
2023-04-16T10:24:39.417Z,23.4954
2023-04-16T10:25:43.545Z,23.4921
2023-04-16T10:26:47.428Z,23.4883
2023-04-16T10:27:51.560Z,23.4975
2023-04-16T10:28:55.456Z,23.4971
2023-04-16T10:29:59.342Z,23.4883
2023-04-16T10:31:03.281Z,23.4758
2023-04-16T10:32:07.159Z,23.5054
2023-04-16T10:33:11.093Z,23.5242
2023-04-16T10:34:14.964Z,23.5192
2023-04-16T10:35:18.870Z,23.5329
2023-04-16T10:36:22.779Z,23.5354
2023-04-16T10:37:26.976Z,23.5296
2023-04-16T10:38:30.880Z,23.5242
2023-04-16T10:39:34.805Z,23.5404
2023-04-16T10:40:38.725Z,23.5408
2023-04-16T10:41:42.628Z,23.5529
2023-04-16T10:42:46.535Z,23.5608
2023-04-16T10:43:50.450Z,23.5613
2023-04-16T10:44:54.342Z,23.5617
2023-04-16T10:45:58.482Z,23.5417
2023-04-16T10:47:02.418Z,23.5446
2023-04-16T10:48:06.350Z,23.5533
2023-04-16T10:49:10.319Z,23.5537
2023-04-16T10:50:14.545Z,23.5537
2023-04-16T10:51:18.466Z,23.5592
2023-04-16T10:52:22.393Z,23.5692
2023-04-16T10:53:26.269Z,23.5596
2023-04-16T10:54:30.143Z,23.5513
2023-04-16T10:55:34.025Z,23.5654
2023-04-16T10:56:37.908Z,23.5717
2023-04-16T10:57:41.787Z,23.5704
2023-04-16T10:58:45.673Z,23.5579
2023-04-16T10:59:49.902Z,23.5500
2023-04-16T11:00:53.810Z,23.5363
2023-04-16T11:01:57.798Z,23.5479
2023-04-16T11:03:01.768Z,23.5475
2023-04-16T11:04:05.793Z,23.5375
2023-04-16T11:05:09.755Z,23.5458
2023-04-16T11:06:13.676Z,23.5575
2023-04-16T11:07:17.568Z,23.5708
2023-04-16T11:08:21.440Z,23.5879
2023-04-16T11:09:25.347Z,23.6033
2023-04-16T11:10:29.459Z,23.6008
2023-04-16T11:11:33.375Z,23.5917
2023-04-16T11:12:37.399Z,23.5971
2023-04-16T11:13:43.133Z,23.5887
2023-04-16T11:14:42.124Z,23.5814
2023-04-16T11:15:46.274Z,23.5842
2023-04-16T11:16:50.159Z,23.5696
2023-04-16T11:17:54.152Z,23.5729
2023-04-16T11:18:58.027Z,23.5704
2023-04-16T11:20:02.136Z,23.5704
2023-04-16T11:21:06.042Z,23.5725
2023-04-16T11:22:09.960Z,23.5675
2023-04-16T11:23:10.310Z,23.5791
2023-04-16T11:24:14.254Z,23.5967
2023-04-16T11:25:18.135Z,23.5925
2023-04-16T11:26:22.016Z,23.6021
2023-04-16T11:27:25.915Z,23.5875
2023-04-16T11:28:29.801Z,23.5863
2023-04-16T11:29:33.689Z,23.6050
2023-04-16T11:30:37.584Z,23.6079
2023-04-16T11:31:41.495Z,23.6087
2023-04-16T11:32:45.419Z,23.6063
2023-04-16T11:33:49.276Z,23.5863
2023-04-16T11:34:53.387Z,23.5779
2023-04-16T11:35:57.279Z,23.5708
2023-04-16T11:37:01.169Z,23.5758
2023-04-16T11:38:05.317Z,23.5867
2023-04-16T11:39:09.323Z,23.5962
2023-04-16T11:40:13.624Z,23.5996
2023-04-16T11:41:17.480Z,23.5979
2023-04-16T11:42:21.613Z,23.6083
2023-04-16T11:43:25.504Z,23.6117
2023-04-16T11:44:29.386Z,23.6079
2023-04-16T11:45:33.282Z,23.6275
2023-04-16T11:46:37.196Z,23.6300
2023-04-16T11:47:41.123Z,23.6008
2023-04-16T11:48:45.045Z,23.5904
2023-04-16T11:49:48.953Z,23.5992
2023-04-16T11:50:52.826Z,23.6012
2023-04-16T11:51:56.742Z,23.6092
2023-04-16T11:53:00.829Z,23.6275
2023-04-16T11:54:04.733Z,23.6437
2023-04-16T11:55:08.845Z,23.6425
2023-04-16T11:56:12.743Z,23.6292
2023-04-16T11:57:16.652Z,23.6342
2023-04-16T11:58:20.541Z,23.6342
2023-04-16T11:59:21.384Z,23.6455
2023-04-16T12:00:25.270Z,23.6562
2023-04-16T12:01:29.178Z,23.6575
2023-04-16T12:02:33.148Z,23.6467
2023-04-16T12:03:37.339Z,23.6475
2023-04-16T12:04:41.485Z,23.6333
2023-04-16T12:05:45.387Z,23.6471
2023-04-16T12:06:49.293Z,23.6546
2023-04-16T12:07:53.478Z,23.6654
2023-04-16T12:08:57.366Z,23.6562
2023-04-16T12:10:01.276Z,23.6508
2023-04-16T12:11:05.174Z,23.6458
2023-04-16T12:12:09.319Z,23.6250
2023-04-16T12:13:13.218Z,23.6400
2023-04-16T12:14:17.121Z,23.6567
2023-04-16T12:15:21.249Z,23.6825
2023-04-16T12:16:25.157Z,23.6858
2023-04-16T12:17:29.084Z,23.6929
2023-04-16T12:18:32.935Z,23.7171
2023-04-16T12:19:36.842Z,23.7254
2023-04-16T12:20:40.723Z,23.7038
2023-04-16T12:21:44.604Z,23.6771
2023-04-16T12:22:48.751Z,23.6958
2023-04-16T12:23:52.627Z,23.7137
2023-04-16T12:24:56.757Z,23.7337
2023-04-16T12:26:00.646Z,23.7288
2023-04-16T12:27:04.552Z,23.7279
2023-04-16T12:28:08.421Z,23.7296
2023-04-16T12:29:12.313Z,23.7200
2023-04-16T12:30:16.432Z,23.7013
2023-04-16T12:31:20.420Z,23.6858
2023-04-16T12:32:24.349Z,23.6896
2023-04-16T12:33:28.298Z,23.6896
2023-04-16T12:34:46.765Z,23.7137
2023-04-16T12:35:36.929Z,23.7473
2023-04-16T12:36:40.827Z,23.7567
2023-04-16T12:37:44.956Z,23.7667
2023-04-16T12:38:48.862Z,23.7783
2023-04-16T12:39:53.001Z,23.7667
2023-04-16T12:40:57.332Z,23.7212
2023-04-16T12:42:01.334Z,23.7346
2023-04-16T12:43:05.518Z,23.7367
2023-04-16T12:44:09.392Z,23.7408
2023-04-16T12:45:13.278Z,23.7417
2023-04-16T12:46:17.208Z,23.7200
2023-04-16T12:47:21.108Z,23.7313
2023-04-16T12:48:24.964Z,23.7346
2023-04-16T12:49:28.861Z,23.7237
2023-04-16T12:50:32.751Z,23.7258
2023-04-16T12:51:36.646Z,23.7492
2023-04-16T12:52:40.537Z,23.7638